Kezdőlap
METAR-TAF:

METAR-TAF

Repülőterek :

Dzsibuti, Dzsibuti

földrajzi szélesség: 11-33N, földrajzi hosszúság: 043-10E, magasság: 49 m

Jelenlegi meteorológiai megfigyelések

A jelentés 9 órával és 2 perccel ezelõtt készült, 16:00 UTC
Kelet-délkeleti szél 5 kt
Hőmérséklet 30°C
Páratartalom 79%
Légköri nyomás 1009 hPa
Látótávolság 10 km, vagy több
Kevés felhő 2300 lábon

METAR: HDAM 231600Z 11005KT 9999 FEW023 30/26 Q1009

Idő: 04:02 (01:02 UTC)

Előrejelzés

A jelentés 2 órával és 2 perccel ezelõtt készült, 23:00 UTC
Az előrejelzés 24-én 00 óra UTC és 24-én 24 óra UTC között érvényes
Különbözõ irányokból fújó szél 3 kt
Látótávolság 10 km, vagy több
Szórványos felhőzet 2000 lábon
Szórványos felhőzet 3000 lábon
24-én 06 óra UTC és 24-én 12 óra UTC között fokozatosan kialakuló
Keleti szél 10 kt
Szórványos felhőzet 2300 lábon

TAF: HDAM 232300Z 2400/2424 VRB03KT 9999 SCT020 SCT030 BECMG 2406/2412 10010KT SCT023

Meteorológiai megfigyelések és előrejelzések több, mint 4000 repülőtéren (METAR és TAF jelentéseket).

A térképen piros és sárga pontok jelzik az elérhető meteorológiai állomásokat.

Mozgassa az egeret a pont fölött, hogy megjelenjen az állomás neve.

Azután kattintson az időjárási megfigyelések és előrejelzések megtekintéséhez.

A térkép megváltoztatása: kattintson a fekete keresztel jelölt zöld gombra ráközelítéshez, a vonallal jelölt zöld gombra távolításhoz, vagy a zöld nyilakra a szomszédos térképek eléréséhez.


METAR-TAF: